Latest Weather Observations for Broome

IDW60801

Issued at 12:02 pm WST Sunday 2 August 2015 (issued every 30 minutes, with the page automatically refreshed every 10 minutes)

About weather observations | Map of weather stations | Latest weather observations for WA | Other Formats
Station Details ID: 003003 Name: BROOME AIRPORT Lat: -17.95 Lon: 122.24 Height: 7.42 m
Data from the previous 72 hours. | See also: Recent months at Broome
Date/Time
WST
Temp
°C
App
Temp
°C
Dew
Point
Rel
Hum
%
Delta-T
°C
Wind Press
QNH
hPa
Press
MSL
hPa
Rain
since 9 am
mm
Dir
 
Spd
km/h
Gust
km/h
Spd
kts
Gust
kts
02/11:30am 26.5 25.3 12.7 42 8.0 S 11 15 6 8 1017.3 - 0.0
02/11:00am 25.6 25.0 14.7 51 6.5 SSE 11 15 6 8 1017.6 - 0.0
02/10:30am 23.3 23.1 15.6 62 4.6 SE 11 17 6 9 1017.9 - 0.0
02/10:00am 22.1 22.0 16.1 69 3.6 SE 11 15 6 8 1018.3 - 0.0
02/09:30am 21.9 21.6 16.4 71 3.3 SSE 13 19 7 10 1018.4 - 0.0
02/09:00am 21.3 22.1 18.2 82 1.9 SSE 11 15 6 8 1018.3 1018.2 0.0
02/08:54am 20.9 21.8 18.3 85 1.6 S 11 15 6 8 1018.3 - 0.0
02/08:44am 19.9 21.3 18.6 92 0.8 S 9 15 5 8 1018.3 - 0.0
02/08:30am 19.8 20.5 18.8 94 0.6 SSE 13 22 7 12 1018.2 - 0.0
02/08:17am 19.9 21.2 19.3 96 0.4 S 11 19 6 10 1018.0 - 0.0
02/08:00am 19.9 21.2 19.3 96 0.4 S 11 17 6 9 1017.7 - 0.0
02/07:30am 17.0 19.2 16.5 97 0.3 CALM 0 0 0 0 1017.2 - 0.0
02/07:18am 16.0 17.9 15.7 98 0.2 CALM 0 0 0 0 1017.1 - 0.0
02/07:00am 15.1 16.6 14.6 97 0.3 CALM 0 0 0 0 1017.0 - 0.0
02/06:30am 13.8 14.8 13.3 97 0.3 CALM 0 - 0 - 1016.9 - 0.0
02/06:00am 13.3 14.3 13.1 99 0.1 CALM 0 - 0 - 1016.8 1016.7 0.0
02/05:30am 13.7 14.8 13.5 99 0.1 CALM 0 - 0 - 1016.6 - 0.0
02/05:00am 14.0 15.2 13.8 99 0.1 CALM 0 - 0 - 1016.4 - 0.0
02/04:30am 13.7 13.7 13.5 99 0.1 NE 6 7 3 4 1016.2 - 0.0
02/04:09am 14.2 14.3 14.0 99 0.1 NE 6 7 3 4 1016.3 - 0.0
02/04:08am 14.2 14.3 13.8 97 0.2 NE 6 7 3 4 1016.3 - 0.0
02/04:00am 14.0 14.4 13.8 99 0.1 NE 4 9 2 5 1016.4 - 0.0
02/03:30am 14.7 16.1 14.3 97 0.2 CALM 0 - 0 - 1016.4 - 0.0
02/03:22am 14.5 15.8 14.1 97 0.2 CALM 0 - 0 - 1016.4 - 0.0
02/03:09am 14.8 16.2 14.4 97 0.2 CALM 0 - 0 - 1016.5 - 0.0
02/03:08am 14.9 16.3 14.4 97 0.3 CALM 0 - 0 - 1016.5 - 0.0
02/03:00am 15.3 16.7 14.4 94 0.5 CALM 0 0 0 0 1016.4 1016.3 0.0
02/02:30am 16.2 18.1 15.7 97 0.3 CALM 0 0 0 0 1016.5 - 0.0
02/02:00am 16.7 18.8 16.2 97 0.3 CALM 0 0 0 0 1016.6 - 0.0
02/01:30am 16.2 17.1 16.0 99 0.1 NE 6 9 3 5 1016.8 - 0.0
02/01:10am 15.8 17.2 15.5 98 0.2 N 2 7 1 4 1016.8 - 0.0
02/01:00am 17.5 18.8 17.0 97 0.3 N 6 7 3 4 1016.8 - 0.0
02/12:50am 17.4 18.7 17.2 99 0.1 N 6 6 3 3 1016.9 - 0.0
02/12:30am 17.6 18.9 17.1 97 0.3 N 6 7 3 4 1016.8 - 0.0
02/12:00am 18.1 20.0 17.6 97 0.3 NNE 4 7 2 4 1016.8 1016.7 0.0
 
Date/Time
WST
Temp
°C
App
Temp
°C
Dew
Point
Rel
Hum
%
Delta-T
°C
Wind Press
QNH
hPa
Press
MSL
hPa
Rain
since 9 am
mm
Dir
 
Spd
km/h
Gust
km/h
Spd
kts
Gust
kts
01/11:30pm 18.6 21.0 17.9 96 0.4 NE 2 7 1 4 1016.8 - 0.0
01/11:00pm 20.2 23.5 19.1 93 0.7 CALM 0 0 0 0 1016.8 - 0.0
01/10:30pm 21.3 23.7 19.7 91 1.0 S 6 9 3 5 1016.8 - 0.0
01/10:00pm 21.5 23.2 20.1 92 0.9 SSW 11 15 6 8 1016.9 - 0.0
01/09:30pm 21.8 22.9 20.4 92 0.9 SSW 15 20 8 11 1016.7 - 0.0
01/09:00pm 21.9 22.6 20.5 92 0.9 SSW 17 22 9 12 1016.6 1016.5 0.0
01/08:30pm 22.0 23.2 20.6 92 0.9 SSW 15 20 8 11 1016.5 - 0.0
01/08:00pm 22.1 22.9 20.7 92 0.9 SW 17 22 9 12 1016.3 - 0.0
01/07:30pm 22.2 23.0 20.7 91 1.0 SW 17 22 9 12 1016.2 - 0.0
01/07:00pm 22.3 22.5 20.6 90 1.1 SW 20 26 11 14 1015.7 - 0.0
01/06:30pm 22.4 22.8 20.7 90 1.1 SW 19 26 10 14 1015.2 - 0.0
01/06:00pm 22.6 23.5 20.8 89 1.2 SW 17 22 9 12 1014.9 1014.8 0.0
01/05:30pm 23.1 23.5 20.6 86 1.6 SW 19 28 10 15 1014.8 - 0.0
01/05:00pm 24.1 24.1 20.2 79 2.5 SW 20 28 11 15 1014.7 - 0.0
01/04:30pm 25.3 24.5 19.2 69 3.9 WSW 22 30 12 16 1014.6 - 0.0
01/04:00pm 26.2 25.8 19.4 66 4.4 WSW 20 30 11 16 1014.5 - 0.0
01/03:30pm 26.2 24.9 19.0 64 4.6 WSW 24 32 13 17 1014.4 - 0.0
01/03:00pm 26.0 24.5 18.6 63 4.7 WSW 24 32 13 17 1014.4 1014.3 0.0
01/02:30pm 27.1 25.9 17.6 56 6.0 WSW 20 32 11 17 1014.7 - 0.0
01/02:00pm 26.9 25.8 17.3 55 6.0 WSW 19 28 10 15 1015.1 - 0.0
01/01:30pm 27.2 25.7 16.3 51 6.7 W 19 24 10 13 1015.2 - 0.0
01/01:00pm 27.7 26.4 16.8 51 6.8 W 19 22 10 12 1015.6 - 0.0
01/12:30pm 27.6 26.8 17.2 53 6.5 WSW 17 20 9 11 1015.9 - 0.0
01/12:00pm 28.3 27.3 14.7 43 8.2 WSW 13 19 7 10 1016.3 1016.2 0.0
01/11:30am 27.5 26.3 13.9 43 8.1 S 13 19 7 10 1016.8 - 0.0
01/11:00am 27.2 26.5 15.3 48 7.2 S 13 19 7 10 1017.1 - 0.0
01/10:30am 26.0 25.6 15.2 51 6.5 S 11 17 6 9 1017.5 - 0.0
01/10:00am 25.4 26.2 17.2 60 5.1 SSE 9 13 5 7 1017.7 - 0.0
01/09:30am 23.1 24.8 19.3 79 2.4 SSE 9 11 5 6 1017.8 - 0.0
01/09:00am 23.1 25.5 19.7 81 2.2 SE 6 9 3 5 1017.7 1017.6 0.2
01/08:35am 22.0 24.8 19.6 86 1.5 E 4 7 2 4 1017.4 - 0.2
01/08:05am 19.2 21.6 18.7 97 0.3 E 4 7 2 4 1017.3 - 0.0
01/08:00am 19.2 22.3 18.7 97 0.3 CALM 0 6 0 3 1017.3 - 0.0
01/07:42am 17.6 20.2 17.4 99 0.1 CALM 0 - 0 - 1017.1 - 0.0
01/07:30am 17.2 19.6 17.0 99 0.1 CALM 0 - 0 - 1016.9 - 0.0
01/07:00am 16.2 18.2 16.0 99 0.1 CALM 0 - 0 - 1016.5 - 0.0
01/06:30am 15.9 16.7 15.9 100 0.0 ESE 6 7 3 4 1016.2 - 0.0
01/06:00am 15.0 16.6 14.8 99 0.1 CALM 0 - 0 - 1015.9 1015.8 0.0
01/05:30am 14.5 15.9 14.5 100 0.0 CALM 0 - 0 - 1015.7 - 0.0
01/05:00am 14.4 15.7 14.2 99 0.1 CALM 0 - 0 - 1015.5 - 0.0
01/04:30am 15.4 15.8 15.2 99 0.1 NE 7 9 4 5 1015.3 - 0.0
01/04:24am 15.6 16.2 15.3 98 0.2 ENE 6 9 3 5 1015.3 - 0.0
01/04:12am 14.9 15.7 14.7 99 0.1 E 4 7 2 4 1015.1 - 0.0
01/04:02am 14.9 16.0 14.5 97 0.2 NE 2 9 1 5 1015.0 - 0.0
01/04:00am 15.1 16.4 15.1 100 0.0 NE 2 9 1 5 1015.0 - 0.0
01/03:57am 15.3 16.9 15.0 98 0.2 CALM 0 - 0 - 1015.0 - 0.0
01/03:41am 14.4 15.7 14.0 97 0.2 CALM 0 6 0 3 1015.0 - 0.0
01/03:40am 14.3 15.2 13.9 97 0.2 NNE 2 6 1 3 1015.0 - 0.0
01/03:32am 14.3 14.3 14.1 99 0.1 NNE 7 9 4 5 1015.0 - 0.0
01/03:30am 14.4 14.4 14.2 99 0.1 NNE 7 11 4 6 1015.0 - 0.0
01/03:23am 15.2 15.5 15.0 99 0.1 N 7 11 4 6 1015.0 - 0.0
01/03:05am 15.0 15.0 14.3 96 0.4 ENE 7 11 4 6 1015.1 - 0.0
01/03:00am 14.8 14.9 13.9 94 0.5 E 6 11 3 6 1015.1 1015.0 0.0
01/02:30am 15.8 16.6 14.9 94 0.5 E 4 7 2 4 1015.1 - 0.0
01/02:00am 17.6 19.9 16.8 95 0.5 CALM 0 2 0 1 1015.2 - 0.0
01/01:30am 17.3 17.9 16.8 97 0.3 NNW 9 11 5 6 1015.4 - 0.0
01/01:00am 17.3 18.4 16.6 96 0.4 NW 6 9 3 5 1015.7 - 0.0
01/12:30am 16.8 19.0 16.5 98 0.2 CALM 0 0 0 0 1015.9 - 0.0
01/12:00am 16.5 18.4 15.8 96 0.4 CALM 0 0 0 0 1016.0 1015.9 0.0
 
Date/Time
WST
Temp
°C
App
Temp
°C
Dew
Point
Rel
Hum
%
Delta-T
°C
Wind Press
QNH
hPa
Press
MSL
hPa
Rain
since 9 am
mm
Dir
 
Spd
km/h
Gust
km/h
Spd
kts
Gust
kts
31/11:30pm 17.1 19.2 16.3 95 0.5 CALM 0 0 0 0 1016.1 - 0.0
31/11:00pm 17.2 18.2 16.4 95 0.5 E 6 7 3 4 1016.2 - 0.0
31/10:30pm 17.5 18.6 16.7 95 0.5 N 6 7 3 4 1016.3 - 0.0
31/10:00pm 18.6 21.4 17.9 96 0.4 CALM 0 0 0 0 1016.2 - 0.0
31/09:30pm 18.1 20.5 17.1 94 0.6 CALM 0 0 0 0 1016.2 - 0.0
31/09:00pm 19.9 22.1 19.3 96 0.4 NW 6 11 3 6 1015.9 1015.8 0.0
31/08:30pm 19.1 20.9 18.3 95 0.5 N 6 7 3 4 1015.8 - 0.0
31/08:00pm 21.0 23.6 20.1 95 0.6 N 6 9 3 5 1015.5 - 0.0
31/07:30pm 20.9 23.1 19.6 92 0.8 N 7 7 4 4 1015.2 - 0.0
31/07:00pm 21.6 24.0 20.0 91 1.0 NNW 7 9 4 5 1014.8 - 0.0
31/06:30pm 22.3 24.5 20.3 88 1.3 NNW 9 11 5 6 1014.4 - 0.0
31/06:00pm 22.9 24.2 20.1 84 1.8 NNW 13 17 7 9 1014.1 1014.0 0.0
31/05:30pm 23.6 24.8 20.0 80 2.3 NW 13 19 7 10 1013.7 - 0.0
31/05:00pm 24.6 24.3 19.6 73 3.2 WNW 20 26 11 14 1013.4 - 0.0
31/04:30pm 25.3 24.5 19.2 69 3.9 W 22 30 12 16 1013.3 - 0.0
31/04:00pm 26.3 24.5 16.0 53 6.3 W 20 30 11 16 1013.2 - 0.0
31/03:30pm 26.6 24.4 17.0 55 6.0 W 24 30 13 16 1013.4 - 0.0
31/03:00pm 26.6 24.7 16.8 55 6.1 W 22 30 12 16 1013.5 1013.4 0.0
31/02:30pm 26.7 24.7 17.3 56 5.9 W 24 30 13 16 1013.6 - 0.0
31/02:00pm 27.6 25.2 15.3 47 7.5 W 22 28 12 15 1013.9 - 0.0
31/01:30pm 28.2 25.4 12.6 38 9.1 W 19 24 10 13 1014.2 - 0.0
31/01:00pm 28.0 24.8 11.4 35 9.5 W 19 24 10 13 1014.7 - 0.0
31/12:30pm 27.7 24.3 9.2 31 10.2 W 17 20 9 11 1015.2 - 0.0
31/12:00pm 27.7 24.7 10.5 34 9.7 W 17 20 9 11 1015.6 1015.5 0.0
31/11:30am 27.9 26.6 12.4 38 9.0 WSW 11 17 6 9 1016.0 - 0.0
31/11:00am 27.2 25.8 12.3 39 8.6 W 11 15 6 8 1016.5 - 0.0
31/10:30am 27.7 26.8 10.5 34 9.7 SSW 6 9 3 5 1016.7 - 0.0
31/10:00am 26.4 24.9 10.7 37 8.8 WSW 9 13 5 7 1017.0 - 0.0
31/09:30am 25.9 23.9 6.2 28 10.2 SSE 6 9 3 5 1017.2 - 0.0
31/09:00am 24.5 23.3 9.4 38 8.2 E 6 11 3 6 1017.3 1017.2 0.0
31/08:30am 23.2 21.6 8.8 39 7.7 SSE 7 11 4 6 1017.0 - 0.2
31/08:00am 21.2 20.3 10.6 50 5.8 E 6 7 3 4 1016.7 - 0.0
31/07:30am 18.3 18.0 11.5 64 3.7 ENE 4 11 2 6 1016.5 - 0.0
31/07:00am 15.8 15.2 12.3 80 1.9 ENE 7 9 4 5 1016.5 - 0.0
31/06:30am 14.4 13.9 12.8 90 0.9 E 7 9 4 5 1016.1 - 0.0
31/06:00am 14.8 14.3 12.6 87 1.2 E 7 7 4 4 1015.8 1015.7 0.0
31/05:30am 13.7 13.8 12.8 94 0.5 NE 4 6 2 3 1015.6 - 0.0
31/05:00am 13.3 13.0 12.6 95 0.4 NE 6 9 3 5 1015.5 - 0.0
31/04:30am 14.7 16.0 14.0 96 0.4 CALM 0 0 0 0 1015.3 - 0.0
31/04:00am 14.6 15.8 13.9 96 0.4 CALM 0 0 0 0 1015.5 - 0.0
31/03:30am 14.6 14.8 14.2 97 0.2 NNE 6 7 3 4 1015.8 - 0.0
31/03:00am 14.7 14.3 14.0 96 0.4 NNE 9 9 5 5 1016.0 1015.9 0.0
31/02:30am 15.9 17.7 15.4 97 0.3 CALM 0 4 0 2 1016.0 - 0.0
31/02:00am 15.3 16.6 14.1 92 0.7 CALM 0 0 0 0 1016.3 - 0.0
31/01:30am 16.1 17.7 14.9 93 0.7 CALM 0 0 0 0 1016.6 - 0.0
31/01:00am 16.7 18.6 15.7 94 0.6 CALM 0 0 0 0 1016.9 - 0.0
31/12:30am 16.5 17.0 14.9 90 0.9 SW 6 7 3 4 1017.0 - 0.0
31/12:00am 17.7 19.9 16.4 92 0.8 CALM 0 0 0 0 1017.0 1016.9 0.0
 
Date/Time
WST
Temp
°C
App
Temp
°C
Dew
Point
Rel
Hum
%
Delta-T
°C
Wind Press
QNH
hPa
Press
MSL
hPa
Rain
since 9 am
mm
Dir
 
Spd
km/h
Gust
km/h
Spd
kts
Gust
kts
30/11:30pm 17.7 19.7 16.0 90 1.0 CALM 0 0 0 0 1017.3 - 0.0
30/11:00pm 18.5 20.9 17.0 91 0.9 CALM 0 0 0 0 1017.7 - 0.0
30/10:30pm 18.8 21.2 17.0 89 1.1 CALM 0 0 0 0 1017.9 - 0.0
30/10:00pm 18.6 20.7 16.2 86 1.4 CALM 0 0 0 0 1017.9 - 0.0
30/09:30pm 19.8 22.3 17.3 85 1.5 CALM 0 0 0 0 1017.8 - 0.0
30/09:00pm 21.5 23.7 18.3 82 2.0 NNW 4 7 2 4 1017.4 1017.3 0.0
30/08:30pm 21.9 23.3 17.9 78 2.5 NNW 7 9 4 5 1017.2 - 0.0
30/08:00pm 22.8 23.7 17.5 72 3.3 WNW 9 13 5 7 1017.0 - 0.0
30/07:30pm 23.2 23.5 17.0 68 3.8 NW 11 15 6 8 1016.8 - 0.0
30/07:00pm 23.4 23.7 16.9 67 4.0 NW 11 17 6 9 1016.5 - 0.0
30/06:30pm 23.7 23.3 16.1 62 4.6 WNW 13 19 7 10 1016.4 - 0.0
30/06:00pm 24.0 23.0 15.7 59 5.0 WNW 15 19 8 10 1016.2 1016.1 0.0
30/05:30pm 24.7 23.6 15.2 55 5.7 WNW 15 19 8 10 1016.0 - 0.0
30/05:00pm 25.9 24.2 13.7 47 7.2 WNW 15 20 8 11 1015.9 - 0.0
30/04:30pm 27.1 24.5 12.0 39 8.7 W 17 22 9 12 1015.9 - 0.0
30/04:00pm 28.3 24.9 11.4 35 9.7 WNW 20 28 11 15 1015.8 - 0.0
30/03:30pm 29.3 24.8 8.6 27 11.4 WNW 22 32 12 17 1015.5 - 0.0
30/03:00pm 30.5 25.4 6.0 21 13.0 WNW 22 32 12 17 1015.3 1015.2 0.0
30/02:30pm 31.8 27.2 6.6 20 13.6 NW 20 30 11 16 1015.3 - 0.0
30/02:00pm 31.9 27.8 6.1 20 13.8 NNW 17 26 9 14 1015.4 - 0.0
30/01:30pm 33.3 29.7 2.7 14 15.6 NNE 11 17 6 9 1015.5 - 0.0
30/01:00pm 33.7 28.5 3.3 15 15.7 ENE 20 33 11 18 1016.0 - 0.0
30/12:30pm 32.8 27.9 3.9 16 15.0 E 19 28 10 15 1016.5 - 0.0

Other Formats:

Comma delimited format used in spreadsheet applications
http://www.bom.gov.au/fwo/IDW60801/IDW60801.94203.axf

JavaScript Object Notation format (JSON) in row-major order
http://www.bom.gov.au/fwo/IDW60801/IDW60801.94203.json